createdAt,value
2023-02-11T00:02:17.556Z,3.10
2023-02-11T00:04:50.263Z,3.10
2023-02-11T00:07:23.049Z,3.10
2023-02-11T00:09:55.854Z,3.00
2023-02-11T00:12:28.878Z,3.10
2023-02-11T00:15:01.807Z,3.00
2023-02-11T00:17:34.481Z,3.00
2023-02-11T00:20:08.369Z,3.00
2023-02-11T00:22:41.133Z,3.10
2023-02-11T00:25:13.782Z,3.00
2023-02-11T00:27:46.436Z,3.10
2023-02-11T00:30:19.153Z,3.10
2023-02-11T00:32:51.856Z,3.00
2023-02-11T00:35:24.518Z,3.00
2023-02-11T00:37:57.266Z,3.00
2023-02-11T00:40:30.008Z,3.00
2023-02-11T00:43:03.065Z,3.00
2023-02-11T00:45:35.727Z,3.00
2023-02-11T00:48:08.466Z,3.00
2023-02-11T00:50:41.180Z,3.00
2023-02-11T00:53:14.003Z,3.00
2023-02-11T00:55:46.740Z,2.90
2023-02-11T00:58:19.539Z,3.00
2023-02-11T01:00:54.855Z,3.00
2023-02-11T01:03:27.661Z,3.00
2023-02-11T01:06:01.295Z,3.00
2023-02-11T01:08:34.264Z,3.00
2023-02-11T01:11:13.290Z,2.90
2023-02-11T01:13:47.371Z,2.90
2023-02-11T01:16:21.908Z,3.00
2023-02-11T01:18:54.798Z,3.00
2023-02-11T01:21:27.648Z,2.90
2023-02-11T01:24:00.298Z,3.00
2023-02-11T01:26:33.597Z,2.90
2023-02-11T01:29:06.279Z,3.00
2023-02-11T01:31:39.131Z,3.00
2023-02-11T01:34:11.946Z,3.00
2023-02-11T01:36:44.790Z,3.00
2023-02-11T01:39:17.552Z,3.00
2023-02-11T01:41:53.211Z,3.00
2023-02-11T01:44:38.084Z,3.00
2023-02-11T01:47:11.174Z,3.10
2023-02-11T01:49:55.360Z,3.10
2023-02-11T01:52:33.749Z,3.10
2023-02-11T01:55:29.148Z,3.10
2023-02-11T01:58:05.354Z,3.10
2023-02-11T02:00:39.340Z,3.00
2023-02-11T02:03:20.122Z,3.00
2023-02-11T02:06:21.138Z,3.10
2023-02-11T02:09:01.115Z,3.10
2023-02-11T02:11:36.355Z,3.10
2023-02-11T02:14:09.077Z,3.10
2023-02-11T02:16:42.077Z,3.10
2023-02-11T02:19:36.449Z,3.10
2023-02-11T02:22:52.841Z,3.10
2023-02-11T02:25:43.308Z,3.10
2023-02-11T02:28:30.461Z,3.10
2023-02-11T02:31:30.638Z,3.10
2023-02-11T02:34:12.681Z,3.10
2023-02-11T02:36:56.571Z,3.10
2023-02-11T02:39:33.679Z,3.00
2023-02-11T02:42:07.138Z,3.00
2023-02-11T02:44:39.928Z,3.00
2023-02-11T02:47:12.568Z,3.00
2023-02-11T02:49:45.412Z,3.00
2023-02-11T02:52:39.490Z,3.00
2023-02-11T02:55:33.191Z,2.90
2023-02-11T02:58:36.109Z,2.90
2023-02-11T03:01:20.158Z,2.90
2023-02-11T03:03:58.296Z,2.90
2023-02-11T03:06:49.888Z,2.90
2023-02-11T03:09:40.269Z,2.90
2023-02-11T03:12:14.701Z,2.90
2023-02-11T03:14:51.279Z,2.90
2023-02-11T03:17:26.243Z,2.90
2023-02-11T03:19:59.860Z,2.90
2023-02-11T03:22:41.385Z,2.90
2023-02-11T03:25:14.556Z,3.00
2023-02-11T03:27:56.579Z,3.00
2023-02-11T03:30:40.497Z,3.00
2023-02-11T03:33:27.108Z,3.00
2023-02-11T03:36:06.688Z,3.00
2023-02-11T03:38:46.010Z,3.10
2023-02-11T03:41:23.248Z,3.10
2023-02-11T03:43:58.220Z,3.10
2023-02-11T03:46:39.244Z,3.10
2023-02-11T03:49:14.676Z,3.10
2023-02-11T03:51:51.168Z,3.20
2023-02-11T03:54:31.203Z,3.10
2023-02-11T03:57:04.098Z,3.20
2023-02-11T03:59:53.082Z,3.20
2023-02-11T04:02:29.331Z,3.20
2023-02-11T04:05:02.661Z,3.20
2023-02-11T04:07:35.420Z,3.20
2023-02-11T04:10:08.860Z,3.20
2023-02-11T04:12:41.610Z,3.20
2023-02-11T04:15:14.490Z,3.20
2023-02-11T04:17:47.283Z,3.20
2023-02-11T04:20:20.227Z,3.20
2023-02-11T04:22:52.948Z,3.20
2023-02-11T04:25:26.255Z,3.10
2023-02-11T04:27:59.077Z,3.10
2023-02-11T04:30:31.890Z,3.00
2023-02-11T04:33:04.655Z,3.00
2023-02-11T04:35:37.386Z,3.00
2023-02-11T04:38:10.040Z,2.90
2023-02-11T04:40:42.903Z,2.90
2023-02-11T04:43:15.616Z,2.80
2023-02-11T04:45:48.677Z,2.80
2023-02-11T04:48:21.549Z,2.70
2023-02-11T04:50:54.285Z,2.70
2023-02-11T04:53:27.023Z,2.70
2023-02-11T04:55:59.733Z,2.60
2023-02-11T04:58:32.529Z,2.60
2023-02-11T05:01:10.084Z,2.60
2023-02-11T05:03:43.472Z,2.50
2023-02-11T05:06:16.708Z,2.50
2023-02-11T05:08:49.430Z,2.50
2023-02-11T05:11:24.162Z,2.40
2023-02-11T05:13:56.890Z,2.40
2023-02-11T05:16:29.730Z,2.40
2023-02-11T05:19:02.538Z,2.30
2023-02-11T05:21:35.354Z,2.30
2023-02-11T05:24:08.316Z,2.30
2023-02-11T05:26:41.085Z,2.20
2023-02-11T05:29:13.847Z,2.20
2023-02-11T05:31:46.625Z,2.20
2023-02-11T05:34:19.422Z,2.10
2023-02-11T05:36:52.087Z,2.10
2023-02-11T05:39:24.771Z,2.00
2023-02-11T05:41:57.442Z,2.00
2023-02-11T05:44:30.203Z,1.90
2023-02-11T05:47:02.953Z,1.90
2023-02-11T05:49:35.861Z,1.80
2023-02-11T05:52:08.653Z,1.80
2023-02-11T05:54:41.372Z,1.70
2023-02-11T05:57:14.599Z,1.70
2023-02-11T05:59:47.273Z,1.60
2023-02-11T06:02:20.037Z,1.50
2023-02-11T06:04:52.735Z,1.50
2023-02-11T06:07:25.439Z,1.40
2023-02-11T06:09:58.958Z,1.40
2023-02-11T06:12:31.674Z,1.40
2023-02-11T06:15:05.522Z,1.40
2023-02-11T06:17:38.223Z,1.40
2023-02-11T06:20:11.988Z,1.40
2023-02-11T06:22:44.780Z,1.30
2023-02-11T06:25:17.605Z,1.30
2023-02-11T06:27:50.324Z,1.30
2023-02-11T06:30:23.073Z,1.30
2023-02-11T06:32:55.831Z,1.20
2023-02-11T06:35:29.695Z,1.20
2023-02-11T06:38:02.494Z,1.20
2023-02-11T06:40:35.183Z,1.20
2023-02-11T06:43:07.820Z,1.20
2023-02-11T06:45:40.495Z,1.30
2023-02-11T06:48:13.228Z,1.30
2023-02-11T06:50:45.940Z,1.30
2023-02-11T06:53:18.927Z,1.40
2023-02-11T06:55:51.918Z,1.50
2023-02-11T06:58:24.929Z,1.50
2023-02-11T07:00:58.168Z,1.60
2023-02-11T07:03:30.937Z,1.70
2023-02-11T07:06:05.618Z,1.70
2023-02-11T07:08:39.274Z,1.70
2023-02-11T07:11:14.308Z,1.80
2023-02-11T07:13:47.626Z,1.80
2023-02-11T07:16:20.788Z,1.90
2023-02-11T07:18:54.237Z,1.90
2023-02-11T07:21:27.776Z,1.90
2023-02-11T07:24:00.501Z,1.90
2023-02-11T07:26:33.568Z,1.90
2023-02-11T07:29:06.450Z,2.00
2023-02-11T07:31:39.335Z,2.00
2023-02-11T07:34:12.132Z,2.10
2023-02-11T07:36:45.065Z,2.10
2023-02-11T07:39:17.919Z,2.20
2023-02-11T07:41:50.956Z,2.20
2023-02-11T07:44:23.682Z,2.30
2023-02-11T07:46:56.434Z,2.30
2023-02-11T07:49:29.552Z,2.30
2023-02-11T07:52:02.278Z,2.40
2023-02-11T07:54:34.999Z,2.40
2023-02-11T07:57:07.733Z,2.50
2023-02-11T07:59:40.490Z,2.50
2023-02-11T08:02:13.267Z,2.50
2023-02-11T08:04:46.792Z,2.50
2023-02-11T08:07:19.964Z,2.50
2023-02-11T08:09:52.667Z,2.60
2023-02-11T08:12:25.455Z,2.60
2023-02-11T08:14:58.123Z,2.70
2023-02-11T08:17:30.822Z,2.70
2023-02-11T08:20:05.858Z,2.70
2023-02-11T08:22:38.644Z,2.70
2023-02-11T08:25:11.322Z,2.80
2023-02-11T08:27:44.094Z,2.80
2023-02-11T08:30:16.855Z,2.90
2023-02-11T08:32:49.658Z,2.80
2023-02-11T08:35:22.414Z,2.80
2023-02-11T08:37:55.211Z,2.80
2023-02-11T08:40:27.983Z,2.80
2023-02-11T08:43:00.689Z,2.90
2023-02-11T08:45:33.383Z,2.90
2023-02-11T08:48:06.256Z,3.00
2023-02-11T08:50:39.859Z,3.00
2023-02-11T08:53:12.578Z,3.10
2023-02-11T08:55:53.531Z,3.10
2023-02-11T08:58:26.294Z,3.20
2023-02-11T09:00:59.159Z,3.30
2023-02-11T09:03:32.182Z,3.30
2023-02-11T09:06:06.924Z,3.20
2023-02-11T09:08:44.707Z,3.30
2023-02-11T09:11:26.821Z,3.30
2023-02-11T09:14:00.702Z,3.30
2023-02-11T09:16:36.073Z,3.40
2023-02-11T09:19:10.139Z,3.50
2023-02-11T09:21:43.036Z,3.50
2023-02-11T09:24:15.993Z,3.50
2023-02-11T09:26:49.508Z,3.60
2023-02-11T09:29:22.222Z,3.70
2023-02-11T09:31:55.033Z,3.60
2023-02-11T09:34:27.802Z,3.70
2023-02-11T09:37:01.163Z,3.70
2023-02-11T09:39:33.847Z,3.70
2023-02-11T09:42:30.395Z,3.80
2023-02-11T09:45:04.965Z,3.80
2023-02-11T09:47:59.156Z,3.90
2023-02-11T09:50:38.761Z,3.90
2023-02-11T09:53:18.062Z,4.00
2023-02-11T09:55:57.446Z,4.10
2023-02-11T10:02:29.398Z,4.30
2023-02-11T10:05:22.303Z,4.30
2023-02-11T10:08:22.601Z,4.40
2023-02-11T10:11:30.635Z,4.40
2023-02-11T10:14:15.808Z,4.50
2023-02-11T10:17:14.345Z,4.50
2023-02-11T10:20:06.060Z,4.60
2023-02-11T10:22:46.989Z,4.60
2023-02-11T10:25:24.557Z,4.60
2023-02-11T10:27:59.718Z,4.60
2023-02-11T10:30:57.018Z,4.70
2023-02-11T10:33:36.291Z,4.70
2023-02-11T10:36:12.164Z,4.70
2023-02-11T10:38:45.348Z,4.70
2023-02-11T10:41:22.561Z,4.70
2023-02-11T10:43:55.740Z,4.80
2023-02-11T10:46:33.242Z,4.80
2023-02-11T10:49:06.077Z,4.90
2023-02-11T10:51:38.855Z,4.90
2023-02-11T10:54:19.523Z,5.00
2023-02-11T10:56:59.375Z,5.00
2023-02-11T10:59:51.438Z,5.10
2023-02-11T11:02:36.727Z,5.10
2023-02-11T11:05:20.724Z,5.10
2023-02-11T11:08:07.555Z,5.20
2023-02-11T11:10:43.607Z,5.20
2023-02-11T11:13:45.326Z,5.20
2023-02-11T11:16:30.979Z,5.30
2023-02-11T11:19:06.850Z,5.30
2023-02-11T11:21:48.234Z,5.30
2023-02-11T11:24:38.317Z,5.40
2023-02-11T11:27:19.508Z,5.40
2023-02-11T11:29:54.346Z,5.50
2023-02-11T11:32:32.225Z,5.50
2023-02-11T11:35:21.835Z,5.70
2023-02-11T11:38:01.851Z,5.80
2023-02-11T11:40:35.586Z,5.80
2023-02-11T11:43:14.432Z,5.90
2023-02-11T11:45:58.635Z,6.00
2023-02-11T11:48:45.673Z,6.20
2023-02-11T11:51:18.563Z,6.30
2023-02-11T11:54:03.003Z,6.40
2023-02-11T11:56:43.067Z,6.50
2023-02-11T11:59:17.064Z,6.60
2023-02-11T12:04:42.698Z,6.70
2023-02-11T12:07:35.674Z,6.70
2023-02-11T12:10:14.543Z,6.70
2023-02-11T12:13:06.994Z,6.70
2023-02-11T12:15:58.733Z,6.70
2023-02-11T12:18:46.965Z,6.70
2023-02-11T12:22:03.089Z,6.60
2023-02-11T12:24:47.109Z,6.50
2023-02-11T12:27:51.146Z,6.40
2023-02-11T12:30:49.806Z,6.40
2023-02-11T12:33:50.376Z,6.30
2023-02-11T12:36:35.048Z,6.30
2023-02-11T12:39:36.997Z,6.30
2023-02-11T12:42:40.313Z,6.30
2023-02-11T12:45:13.857Z,6.30
2023-02-11T12:48:16.617Z,6.30
2023-02-11T12:51:05.755Z,6.30
2023-02-11T12:53:47.585Z,6.30
2023-02-11T12:56:35.983Z,6.20
2023-02-11T12:59:17.557Z,6.20
2023-02-11T13:01:52.519Z,6.10
2023-02-11T13:04:40.197Z,6.10
2023-02-11T13:07:40.376Z,6.10
2023-02-11T13:10:36.176Z,6.10
2023-02-11T13:13:25.163Z,6.10
2023-02-11T13:16:17.104Z,6.10
2023-02-11T13:18:59.630Z,6.10
2023-02-11T13:21:55.926Z,6.10
2023-02-11T13:24:47.345Z,6.10
2023-02-11T13:27:47.948Z,6.10
2023-02-11T13:30:29.386Z,6.10
2023-02-11T13:33:06.406Z,6.10
2023-02-11T13:35:42.550Z,6.20
2023-02-11T13:38:27.460Z,6.10
2023-02-11T13:41:02.931Z,6.10
2023-02-11T13:43:36.839Z,6.10
2023-02-11T13:46:14.752Z,6.20
2023-02-11T13:48:49.815Z,6.20
2023-02-11T13:51:38.153Z,6.20
2023-02-11T13:54:25.129Z,6.30
2023-02-11T13:57:20.197Z,6.30
2023-02-11T13:59:58.347Z,6.30
2023-02-11T14:02:52.514Z,6.40
2023-02-11T14:05:49.781Z,6.40
2023-02-11T14:08:43.099Z,6.40
2023-02-11T14:11:35.002Z,6.50
2023-02-11T14:14:27.842Z,6.50
2023-02-11T14:17:06.522Z,6.50
2023-02-11T14:19:45.003Z,6.50
2023-02-11T14:22:28.623Z,6.60
2023-02-11T14:25:04.218Z,6.60
2023-02-11T14:28:04.716Z,6.60
2023-02-11T14:31:03.640Z,6.60
2023-02-11T14:33:50.471Z,6.70
2023-02-11T14:36:46.962Z,6.60
2023-02-11T14:39:24.658Z,6.60
2023-02-11T14:41:57.460Z,6.60
2023-02-11T14:44:32.895Z,6.60
2023-02-11T14:47:05.793Z,6.60
2023-02-11T14:49:40.455Z,6.60
2023-02-11T14:52:34.334Z,6.60
2023-02-11T14:55:29.889Z,6.60
2023-02-11T14:58:15.172Z,6.60
2023-02-11T15:01:03.281Z,6.60
2023-02-11T15:03:38.712Z,6.60
2023-02-11T15:06:20.432Z,6.50
2023-02-11T15:09:02.575Z,6.50
2023-02-11T15:11:40.702Z,6.50
2023-02-11T15:14:23.815Z,6.50
2023-02-11T15:17:05.934Z,6.50
2023-02-11T15:19:42.173Z,6.40
2023-02-11T15:22:22.135Z,6.40
2023-02-11T15:25:16.125Z,6.40
2023-02-11T15:27:51.097Z,6.40
2023-02-11T15:30:23.758Z,6.40
2023-02-11T15:32:59.990Z,6.40
2023-02-11T15:35:37.006Z,6.40
2023-02-11T15:38:12.635Z,6.40
2023-02-11T15:41:00.793Z,6.40
2023-02-11T15:43:50.935Z,6.40
2023-02-11T15:46:24.160Z,6.40
2023-02-11T15:48:56.984Z,6.30
2023-02-11T15:51:36.402Z,6.30
2023-02-11T15:54:18.599Z,6.30
2023-02-11T15:56:55.312Z,6.30
2023-02-11T15:59:38.077Z,6.30
2023-02-11T16:02:31.834Z,6.30
2023-02-11T16:05:09.468Z,6.30
2023-02-11T16:07:50.050Z,6.30
2023-02-11T16:10:28.721Z,6.30
2023-02-11T16:13:07.464Z,6.30
2023-02-11T16:15:58.279Z,6.30
2023-02-11T16:18:39.396Z,6.30
2023-02-11T16:21:16.731Z,6.30
2023-02-11T16:23:53.197Z,6.30
2023-02-11T16:26:33.272Z,6.30
2023-02-11T16:29:10.488Z,6.20
2023-02-11T16:31:46.107Z,6.30
2023-02-11T16:34:26.071Z,6.20
2023-02-11T16:36:58.991Z,6.30
2023-02-11T16:39:31.991Z,6.20
2023-02-11T16:42:07.421Z,6.20
2023-02-11T16:44:40.306Z,6.20
2023-02-11T16:47:22.733Z,6.20
2023-02-11T16:49:56.008Z,6.20
2023-02-11T16:52:31.369Z,6.10
2023-02-11T16:55:05.350Z,6.10
2023-02-11T16:57:38.117Z,6.10
2023-02-11T17:00:15.844Z,6.10
2023-02-11T17:02:48.600Z,6.10
2023-02-11T17:05:25.708Z,6.10
2023-02-11T17:07:58.641Z,6.10
2023-02-11T17:10:32.319Z,6.10
2023-02-11T17:13:05.186Z,6.10
2023-02-11T17:15:37.953Z,6.10
2023-02-11T17:18:14.169Z,6.10
2023-02-11T17:20:47.155Z,6.10
2023-02-11T17:23:19.851Z,6.10
2023-02-11T17:25:56.912Z,6.10
2023-02-11T17:28:29.788Z,6.10
2023-02-11T17:31:08.938Z,6.10
2023-02-11T17:33:42.372Z,6.00
2023-02-11T17:36:15.969Z,6.00
2023-02-11T17:38:49.972Z,6.00
2023-02-11T17:41:24.277Z,6.00
2023-02-11T17:44:00.339Z,6.00
2023-02-11T17:46:35.772Z,6.00
2023-02-11T17:49:11.787Z,6.00
2023-02-11T17:51:45.979Z,6.00
2023-02-11T17:54:19.521Z,6.00
2023-02-11T17:56:58.130Z,6.00
2023-02-11T17:59:35.857Z,6.00
2023-02-11T18:02:19.481Z,6.00
2023-02-11T18:04:57.865Z,6.00
2023-02-11T18:07:33.146Z,6.00
2023-02-11T18:10:08.244Z,6.00
2023-02-11T18:12:41.654Z,6.00
2023-02-11T18:15:15.035Z,6.00
2023-02-11T18:17:48.349Z,6.00
2023-02-11T18:20:21.413Z,6.00
2023-02-11T18:22:54.587Z,6.00
2023-02-11T18:25:27.948Z,6.00
2023-02-11T18:28:03.073Z,6.00
2023-02-11T18:30:36.336Z,6.00
2023-02-11T18:33:14.402Z,6.10
2023-02-11T18:35:49.640Z,6.10
2023-02-11T18:38:25.701Z,6.10
2023-02-11T18:40:58.688Z,6.10
2023-02-11T18:43:33.445Z,6.20
2023-02-11T18:46:11.921Z,6.10
2023-02-11T18:48:45.047Z,6.20
2023-02-11T18:51:18.711Z,6.10
2023-02-11T18:53:51.519Z,6.10
2023-02-11T18:56:24.999Z,6.10
2023-02-11T18:58:58.064Z,6.00
2023-02-11T19:01:34.537Z,6.00
2023-02-11T19:04:07.382Z,6.00
2023-02-11T19:06:40.158Z,5.90
2023-02-11T19:09:16.575Z,5.90
2023-02-11T19:11:53.863Z,5.90
2023-02-11T19:14:28.742Z,5.90
2023-02-11T19:17:04.938Z,5.90
2023-02-11T19:19:37.753Z,5.90
2023-02-11T19:22:10.993Z,5.90
2023-02-11T19:24:43.771Z,5.80
2023-02-11T19:27:16.908Z,5.80
2023-02-11T19:29:49.640Z,5.80
2023-02-11T19:32:22.556Z,5.80
2023-02-11T19:34:55.280Z,5.80
2023-02-11T19:37:28.156Z,5.90
2023-02-11T19:40:00.992Z,5.80
2023-02-11T19:42:33.752Z,5.80
2023-02-11T19:45:07.384Z,5.80
2023-02-11T19:47:40.078Z,5.80
2023-02-11T19:50:13.265Z,5.70
2023-02-11T19:52:45.987Z,5.70
2023-02-11T19:55:18.833Z,5.70
2023-02-11T19:57:51.498Z,5.70
2023-02-11T20:00:24.205Z,5.70
2023-02-11T20:02:57.088Z,5.70
2023-02-11T20:05:31.267Z,5.70
2023-02-11T20:08:04.140Z,5.70
2023-02-11T20:10:36.912Z,5.70
2023-02-11T20:13:09.649Z,5.70
2023-02-11T20:15:42.537Z,5.70
2023-02-11T20:18:15.285Z,5.70
2023-02-11T20:20:48.015Z,5.70
2023-02-11T20:23:20.731Z,5.70
2023-02-11T20:25:54.080Z,5.70
2023-02-11T20:28:27.080Z,5.70
2023-02-11T20:31:00.523Z,5.70
2023-02-11T20:33:34.702Z,5.70
2023-02-11T20:36:10.100Z,5.60
2023-02-11T20:38:43.899Z,5.70
2023-02-11T20:41:30.785Z,5.70
2023-02-11T20:44:06.225Z,5.70
2023-02-11T20:46:42.095Z,5.70
2023-02-11T20:49:17.816Z,5.70
2023-02-11T20:51:52.383Z,5.70
2023-02-11T20:54:25.581Z,5.60
2023-02-11T20:56:59.608Z,5.70
2023-02-11T20:59:32.672Z,5.70
2023-02-11T21:02:05.570Z,5.60
2023-02-11T21:04:39.016Z,5.60
2023-02-11T21:07:11.871Z,5.60
2023-02-11T21:09:44.593Z,5.60
2023-02-11T21:12:17.345Z,5.60
2023-02-11T21:14:50.166Z,5.60
2023-02-11T21:17:22.921Z,5.60
2023-02-11T21:19:55.691Z,5.60
2023-02-11T21:22:28.406Z,5.60
2023-02-11T21:25:01.140Z,5.60
2023-02-11T21:27:34.272Z,5.60
2023-02-11T21:30:07.994Z,5.60
2023-02-11T21:32:40.647Z,5.60
2023-02-11T21:35:13.315Z,5.70
2023-02-11T21:37:46.294Z,5.70
2023-02-11T21:40:21.513Z,5.70
2023-02-11T21:42:56.528Z,5.70
2023-02-11T21:45:31.441Z,5.60
2023-02-11T21:48:05.156Z,5.60
2023-02-11T21:50:42.593Z,5.60
2023-02-11T21:53:15.494Z,5.60
2023-02-11T21:55:51.069Z,5.60
2023-02-11T21:58:23.857Z,5.60
2023-02-11T22:00:56.610Z,5.60
2023-02-11T22:03:29.350Z,5.60
2023-02-11T22:06:07.102Z,5.60
2023-02-11T22:08:41.069Z,5.60
2023-02-11T22:11:13.983Z,5.60
2023-02-11T22:13:47.108Z,5.60
2023-02-11T22:16:19.843Z,5.60
2023-02-11T22:18:53.010Z,5.60
2023-02-11T22:21:25.905Z,5.60
2023-02-11T22:23:58.704Z,5.60
2023-02-11T22:26:31.536Z,5.50
2023-02-11T22:29:04.356Z,5.50
2023-02-11T22:31:37.357Z,5.50
2023-02-11T22:34:10.457Z,5.50
2023-02-11T22:36:45.243Z,5.50
2023-02-11T22:39:18.141Z,5.50
2023-02-11T22:41:53.998Z,5.50
2023-02-11T22:44:27.082Z,5.50
2023-02-11T22:46:59.752Z,5.50
2023-02-11T22:49:33.153Z,5.50
2023-02-11T22:52:05.910Z,5.50
2023-02-11T22:54:38.821Z,5.50
2023-02-11T22:57:12.075Z,5.50
2023-02-11T22:59:48.819Z,5.50
2023-02-11T23:02:21.761Z,5.50
2023-02-11T23:04:54.505Z,5.50
2023-02-11T23:07:27.410Z,5.50
2023-02-11T23:10:00.430Z,5.50
2023-02-11T23:12:33.163Z,5.50
2023-02-11T23:15:06.152Z,5.50
2023-02-11T23:17:38.973Z,5.50
2023-02-11T23:20:12.154Z,5.50
2023-02-11T23:22:44.885Z,5.50
2023-02-11T23:25:17.893Z,5.50
2023-02-11T23:27:50.574Z,5.50
2023-02-11T23:30:24.018Z,5.50
2023-02-11T23:32:56.761Z,5.50
2023-02-11T23:35:29.444Z,5.50
2023-02-11T23:38:02.223Z,5.50
2023-02-11T23:40:35.021Z,5.60
2023-02-11T23:43:07.756Z,5.50
2023-02-11T23:45:40.561Z,5.50
2023-02-11T23:48:13.801Z,5.60
2023-02-11T23:50:47.262Z,5.60
2023-02-11T23:53:20.405Z,5.60
2023-02-11T23:55:54.189Z,5.50
2023-02-11T23:58:27.291Z,5.50
